Time;durP1;ratioP1;P1;durP2;ratioP2;P2;SDS_P1;SDS_P2;PMS_P1;PMS_P2;Temp;Humidity;BMP_temperature;BMP_pressure;BME280_temperature;BME280_humidity;BME280_pressure;Samples;Min_cycle;Max_cycle;Signal;HPM_P1;HPM_P2
2022/01/06 00:01:13;;;;;;;4.35;1.27;;;;;;;20.25;42.65;101521.72;7308638;19;131141;-62
2022/01/06 00:03:40;;;;;;;4.20;1.27;;;;;;;20.23;42.32;101528.59;7311649;19;131080;-61
2022/01/06 00:06:09;;;;;;;4.13;1.17;;;;;;;20.21;42.66;101528.84;7310778;19;131088;-61
2022/01/06 00:08:38;;;;;;;4.65;1.13;;;;;;;20.19;42.68;101530.16;7309245;19;128923;-62
2022/01/06 00:11:06;;;;;;;3.92;1.25;;;;;;;20.17;42.62;101532.34;7313502;19;132269;-61
2022/01/06 00:14:01;;;;;;;3.67;1.33;;;;;;;20.16;42.51;101545.41;7308802;19;131230;-60
2022/01/06 00:24:26;;;;;;;4.03;1.38;;;;;;;20.07;42.17;101561.56;7311210;19;131270;-62
2022/01/06 00:26:53;;;;;;;7.03;1.40;;;;;;;20.04;41.97;101569.53;7308022;19;128932;-62
2022/01/06 00:29:20;;;;;;;4.10;1.30;;;;;;;20.02;42.08;101580.03;7312975;19;130230;-61
2022/01/06 00:31:47;;;;;;;7.07;1.40;;;;;;;19.97;41.62;101567.69;7307528;19;131708;-62
2022/01/06 00:34:14;;;;;;;4.57;1.42;;;;;;;19.93;41.26;101555.38;7308882;19;131140;-62
2022/01/06 00:36:41;;;;;;;3.35;1.38;;;;;;;19.91;41.31;101552.00;7309106;19;129925;-61
2022/01/06 00:39:09;;;;;;;3.50;1.20;;;;;;;19.89;41.88;101559.72;7311250;19;129021;-61
2022/01/06 00:41:37;;;;;;;5.80;1.83;;;;;;;19.88;41.56;101563.56;7309098;19;131480;-61
2022/01/06 00:44:05;;;;;;;5.68;1.40;;;;;;;19.87;41.83;101566.59;7308817;19;131013;-62
2022/01/06 00:46:32;;;;;;;8.93;1.60;;;;;;;19.87;41.68;101561.88;7313082;19;129765;-61
2022/01/06 00:48:58;;;;;;;6.70;1.38;;;;;;;19.86;41.32;101560.19;7307222;19;129052;-62
2022/01/06 00:51:25;;;;;;;5.25;1.20;;;;;;;19.83;41.46;101558.75;7312292;19;131332;-61
2022/01/06 00:53:52;;;;;;;5.47;1.20;;;;;;;19.83;41.33;101566.22;7306997;19;132425;-61
2022/01/06 00:56:19;;;;;;;5.10;1.50;;;;;;;19.81;41.28;101568.41;7317095;19;128834;-62
2022/01/06 00:58:45;;;;;;;6.20;1.67;;;;;;;19.79;41.55;101567.78;7316724;19;132428;-61
2022/01/06 01:01:12;;;;;;;5.65;1.67;;;;;;;19.78;41.36;101569.72;7317218;19;132359;-62
2022/01/06 01:03:39;;;;;;;3.28;1.20;;;;;;;19.77;41.56;101573.56;7314423;19;131780;-61
2022/01/06 01:06:06;;;;;;;4.82;1.30;;;;;;;19.76;41.79;101571.03;7315205;19;129099;-62
2022/01/06 01:08:34;;;;;;;6.20;1.35;;;;;;;19.74;41.63;101568.50;7317379;19;130491;-62
2022/01/06 01:11:02;;;;;;;5.63;1.70;;;;;;;19.74;41.65;101573.19;7314646;19;131188;-61
2022/01/06 01:13:31;;;;;;;4.93;1.50;;;;;;;19.75;41.85;101586.00;7318478;19;131222;-61
2022/01/06 01:16:08;;;;;;;4.40;1.45;;;;;;;19.74;41.66;101579.63;7314195;19;129056;-62
2022/01/06 01:18:35;;;;;;;3.47;1.23;;;;;;;19.74;41.53;101575.97;7317253;19;129138;-62
2022/01/06 01:21:02;;;;;;;6.13;1.25;;;;;;;19.71;41.76;101577.31;7314655;19;131200;-61
2022/01/06 01:23:29;;;;;;;6.22;1.50;;;;;;;19.71;41.60;101565.34;7316713;19;131822;-62
2022/01/06 01:25:56;;;;;;;4.85;1.45;;;;;;;19.70;41.56;101567.28;7314322;19;133375;-62
2022/01/06 01:28:31;;;;;;;3.95;1.30;;;;;;;19.68;41.92;101570.31;7315440;19;128858;-61
2022/01/06 01:31:13;;;;;;;3.25;1.30;;;;;;;19.67;41.62;101571.38;7317263;19;132137;-62
2022/01/06 01:33:40;;;;;;;4.93;1.50;;;;;;;19.66;41.83;101578.03;7314001;19;131354;-62
2022/01/06 01:36:06;;;;;;;4.13;1.20;;;;;;;19.65;41.65;101581.88;7317333;19;130765;-62
2022/01/06 01:38:33;;;;;;;4.50;1.30;;;;;;;19.64;41.88;101585.75;7314505;19;129165;-61
2022/01/06 01:41:00;;;;;;;5.82;1.20;;;;;;;19.64;41.66;101601.53;7316137;19;131182;-62
2022/01/06 01:43:27;;;;;;;7.38;1.45;;;;;;;19.61;41.88;101593.69;7313739;19;132124;-62
2022/01/06 01:45:57;;;;;;;3.53;1.35;;;;;;;19.60;41.84;101598.38;7315925;19;132050;-60
2022/01/06 01:48:33;;;;;;;5.03;1.30;;;;;;;19.58;42.10;101597.78;7316363;19;129100;-61
2022/01/06 01:51:00;;;;;;;5.13;1.33;;;;;;;19.58;41.64;101605.28;7313582;19;131310;-62
2022/01/06 01:53:27;;;;;;;5.60;1.50;;;;;;;19.57;41.68;101609.97;7317742;19;131442;-61
2022/01/06 01:55:54;;;;;;;4.00;1.30;;;;;;;19.56;41.90;101616.63;7311851;19;129065;-61
2022/01/06 01:58:21;;;;;;;3.95;1.23;;;;;;;19.56;42.03;101622.16;7316222;19;129653;-62
2022/01/06 02:00:48;;;;;;;4.18;1.33;;;;;;;19.54;41.90;101618.78;7313744;19;130988;-61
2022/01/06 02:03:15;;;;;;;6.10;2.03;;;;;;;19.55;41.75;101620.47;7315606;19;131065;-61
2022/01/06 02:05:42;;;;;;;5.38;1.30;;;;;;;19.54;41.75;101624.31;7314130;19;128980;-61
2022/01/06 02:08:09;;;;;;;3.75;1.15;;;;;;;19.53;42.02;101639.28;7313391;19;128920;-61
2022/01/06 02:10:36;;;;;;;4.07;1.40;;;;;;;19.52;42.05;101637.59;7315935;19;131931;-61
2022/01/06 02:13:04;;;;;;;4.00;1.20;;;;;;;19.50;42.22;101632.28;7313390;19;132038;-61
2022/01/06 02:15:31;;;;;;;4.75;1.05;;;;;;;19.49;42.22;101632.50;7316858;19;128977;-61
2022/01/06 02:17:57;;;;;;;7.97;1.52;;;;;;;19.49;41.81;101632.50;7311720;19;128905;-62
2022/01/06 02:20:24;;;;;;;4.32;1.27;;;;;;;19.48;42.23;101625.25;7312274;19;131306;-61
2022/01/06 02:22:52;;;;;;;4.68;1.10;;;;;;;19.48;42.00;101630.81;7311882;19;132098;-61
2022/01/06 02:25:26;;;;;;;4.43;1.10;;;;;;;19.47;41.88;101631.88;7314994;19;130902;-62
2022/01/06 02:27:54;;;;;;;4.25;1.30;;;;;;;19.46;41.97;101630.19;7313976;19;129321;-60
2022/01/06 02:30:23;;;;;;;4.38;1.60;;;;;;;19.44;42.35;101629.59;7312210;19;131077;-62
2022/01/06 02:32:51;;;;;;;3.05;1.10;;;;;;;19.42;42.08;101626.22;7315441;19;131937;-61
2022/01/06 02:35:20;;;;;;;4.25;1.30;;;;;;;19.42;42.44;101628.97;7310996;19;129259;-61
2022/01/06 02:37:47;;;;;;;6.00;1.40;;;;;;;19.41;42.34;101628.13;7315332;19;129237;-61
2022/01/06 02:40:22;;;;;;;3.00;1.27;;;;;;;19.41;42.01;101635.63;7309133;19;132016;-61
2022/01/06 02:42:53;;;;;;;4.05;1.35;;;;;;;19.41;42.09;101630.06;7316057;19;131096;-62
2022/01/06 02:45:20;;;;;;;3.67;1.02;;;;;;;19.38;42.31;101632.22;7312768;19;129046;-61
2022/01/06 02:47:48;;;;;;;4.00;1.17;;;;;;;19.37;42.20;101624.97;7313934;19;129034;-62
2022/01/06 02:50:16;;;;;;;3.17;0.90;;;;;;;19.35;42.23;101623.53;7312158;19;130698;-61
2022/01/06 02:52:43;;;;;;;3.00;1.23;;;;;;;19.36;42.42;101633.53;7311099;19;133286;-62
2022/01/06 02:55:15;;;;;;;3.25;1.02;;;;;;;19.35;42.40;101629.06;7315786;19;129064;-61
2022/01/06 02:57:43;;;;;;;3.00;0.98;;;;;;;19.33;42.37;101634.84;7312197;19;129874;-62
2022/01/06 03:00:13;;;;;;;3.92;1.20;;;;;;;19.32;42.61;101638.69;7315886;19;131211;-61
2022/01/06 03:02:44;;;;;;;3.22;1.13;;;;;;;19.31;42.60;101645.34;7312552;19;131524;-61
2022/01/06 03:05:12;;;;;;;3.97;1.30;;;;;;;19.31;42.21;101637.03;7312966;19;129074;-61
2022/01/06 03:07:39;;;;;;;3.65;1.33;;;;;;;19.31;42.36;101645.34;7314506;19;130151;-61
2022/01/06 03:10:09;;;;;;;3.00;1.17;;;;;;;19.30;42.23;101640.00;7310573;19;130951;-62
2022/01/06 03:12:43;;;;;;;4.72;1.20;;;;;;;19.29;42.50;101641.97;7314163;19;131728;-61
2022/01/06 03:15:14;;;;;;;2.45;0.90;;;;;;;19.29;42.30;101646.63;7310322;19;128927;-61
2022/01/06 03:17:44;;;;;;;3.50;1.00;;;;;;;19.28;42.48;101651.34;7312829;19;129213;-61
2022/01/06 03:20:13;;;;;;;3.10;1.00;;;;;;;19.28;42.67;101647.72;7311402;19;131077;-61
2022/01/06 03:22:41;;;;;;;3.63;1.25;;;;;;;19.26;42.52;101645.19;7312357;19;130933;-62
2022/01/06 03:25:09;;;;;;;3.70;1.15;;;;;;;19.25;42.64;101646.25;7311671;19;129092;-61
2022/01/06 03:27:36;;;;;;;4.03;1.30;;;;;;;19.24;42.75;101655.66;7311760;19;128967;-61
2022/01/06 03:30:05;;;;;;;4.10;1.20;;;;;;;19.24;42.62;101660.38;7312214;19;132133;-61
2022/01/06 03:32:32;;;;;;;2.65;0.82;;;;;;;19.23;42.36;101659.50;7309103;19;131102;-61
2022/01/06 03:34:58;;;;;;;3.05;1.10;;;;;;;19.22;42.44;101660.59;7314665;19;129049;-61
2022/01/06 03:37:26;;;;;;;3.22;0.90;;;;;;;19.22;42.25;101666.13;7309595;19;129087;-61
2022/01/06 03:39:53;;;;;;;3.50;1.02;;;;;;;19.20;42.24;101657.19;7313463;19;132301;-61
2022/01/06 03:42:19;;;;;;;3.80;1.10;;;;;;;19.19;42.77;101664.66;7309953;19;131997;-61
2022/01/06 03:44:46;;;;;;;5.25;1.17;;;;;;;19.19;42.54;101659.09;7311998;19;128848;-62
2022/01/06 03:47:13;;;;;;;2.92;1.00;;;;;;;19.19;42.36;101666.59;7308621;19;128845;-61
2022/01/06 03:49:39;;;;;;;3.42;1.23;;;;;;;19.16;42.25;101662.34;7310822;19;131132;-61
2022/01/06 03:52:06;;;;;;;3.38;1.25;;;;;;;19.16;42.62;101664.28;7313074;19;130841;-60
2022/01/06 03:54:33;;;;;;;3.38;1.00;;;;;;;19.15;42.73;101677.28;7310429;19;128964;-62
2022/01/06 03:57:00;;;;;;;4.03;1.33;;;;;;;19.15;42.48;101676.44;7312265;19;128806;-61
2022/01/06 03:59:27;;;;;;;2.53;1.00;;;;;;;19.14;42.60;101675.59;7306773;19;131105;-61
2022/01/06 04:01:53;;;;;;;2.67;0.80;;;;;;;19.14;42.53;101671.97;7313645;19;131073;-61
2022/01/06 04:04:20;;;;;;;3.90;1.30;;;;;;;19.14;42.38;101671.97;7310519;19;131552;-61
2022/01/06 04:06:47;;;;;;;1.67;0.60;;;;;;;19.14;42.31;101670.03;7311965;19;130898;-62
2022/01/06 04:09:14;;;;;;;2.60;0.95;;;;;;;19.12;42.51;101671.34;7310208;19;131868;-61
2022/01/06 04:11:40;;;;;;;3.17;1.27;;;;;;;19.12;42.36;101671.34;7310148;19;131226;-61
2022/01/06 04:14:07;;;;;;;2.20;0.80;;;;;;;19.12;42.60;101676.91;7312820;19;129571;-61
2022/01/06 04:16:38;;;;;;;3.10;1.23;;;;;;;19.10;42.77;101673.50;7308570;19;134859;-62
2022/01/06 04:19:05;;;;;;;4.07;1.02;;;;;;;19.11;42.37;101675.22;7313812;19;131518;-61
2022/01/06 04:21:33;;;;;;;3.03;1.20;;;;;;;19.09;42.34;101678.22;7307678;19;131022;-62
2022/01/06 04:23:59;;;;;;;4.05;1.10;;;;;;;19.07;42.75;101681.25;7312297;19;128918;-61
2022/01/06 04:26:27;;;;;;;2.53;1.02;;;;;;;19.07;42.45;101685.91;7309330;19;129514;-61
2022/01/06 04:28:54;;;;;;;2.72;0.88;;;;;;;19.05;42.54;101680.63;7311385;19;131192;-61
2022/01/06 04:31:21;;;;;;;2.83;1.13;;;;;;;19.05;42.64;101691.72;7316649;19;131094;-61
2022/01/06 04:33:48;;;;;;;2.83;1.17;;;;;;;19.05;42.54;101688.06;7318018;19;130098;-62
2022/01/06 04:36:14;;;;;;;1.83;0.80;;;;;;;19.05;42.26;101682.53;7319597;19;130508;-61
2022/01/06 04:38:41;;;;;;;3.08;0.90;;;;;;;19.04;42.46;101692.78;7316119;19;131129;-61
2022/01/06 04:41:08;;;;;;;2.75;0.90;;;;;;;19.03;42.70;101693.84;7319433;19;131329;-61
2022/01/06 04:43:34;;;;;;;2.97;0.80;;;;;;;19.02;42.35;101700.47;7316476;19;130677;-61
2022/01/06 04:46:01;;;;;;;3.25;1.00;;;;;;;19.01;42.44;101698.78;7318989;19;129008;-61
2022/01/06 04:48:29;;;;;;;2.65;1.00;;;;;;;19.00;42.79;101708.19;7316190;19;131297;-61
2022/01/06 04:50:55;;;;;;;2.25;0.93;;;;;;;18.99;42.71;101700.94;7315659;19;132046;-61
2022/01/06 04:53:22;;;;;;;3.92;1.30;;;;;;;19.00;42.36;101713.72;7316153;19;129255;-61
2022/01/06 04:55:51;;;;;;;2.70;1.17;;;;;;;18.99;42.33;101703.72;7316835;19;128883;-61
2022/01/06 04:58:18;;;;;;;2.25;1.00;;;;;;;18.98;42.32;101713.09;7316446;19;132096;-61
2022/01/06 05:00:45;;;;;;;3.05;1.08;;;;;;;18.97;42.70;101716.94;7315658;19;131399;-62
2022/01/06 05:03:12;;;;;;;3.13;0.90;;;;;;;18.96;42.66;101706.94;7319410;19;131369;-61
2022/01/06 05:05:38;;;;;;;2.40;0.82;;;;;;;18.96;42.48;101718.03;7313946;19;128618;-61
2022/01/06 05:08:05;;;;;;;3.03;1.10;;;;;;;18.95;42.74;101716.34;7315735;19;131163;-62
2022/01/06 05:10:32;;;;;;;2.92;0.95;;;;;;;18.96;42.34;101720.78;7312536;19;131894;-61
2022/01/06 05:12:59;;;;;;;2.25;0.88;;;;;;;18.96;42.70;101725.50;7316738;19;130100;-62
2022/01/06 05:15:26;;;;;;;3.70;1.17;;;;;;;18.95;42.26;101719.13;7313972;19;130003;-61
2022/01/06 05:17:57;;;;;;;5.05;1.10;;;;;;;18.94;42.46;101716.56;7315218;19;131272;-61
2022/01/06 05:20:25;;;;;;;2.35;1.02;;;;;;;18.94;42.38;101734.06;7317277;19;131485;-61
2022/01/06 05:22:56;;;;;;;2.47;0.85;;;;;;;18.95;42.33;101726.59;7313735;19;128961;-62
2022/01/06 05:25:26;;;;;;;2.60;1.00;;;;;;;18.95;42.55;101726.59;7316346;19;128993;-60
2022/01/06 05:27:54;;;;;;;3.78;1.02;;;;;;;18.94;42.45;101734.06;7311979;19;132011;-61
2022/01/06 05:30:22;;;;;;;3.53;1.10;;;;;;;18.94;42.46;101736.84;7314066;19;131902;-62
2022/01/06 05:32:49;;;;;;;2.72;1.13;;;;;;;18.94;42.19;101741.53;7314130;19;130057;-61
2022/01/06 05:35:16;;;;;;;2.90;1.10;;;;;;;18.93;42.48;101743.47;7315329;19;130178;-61
2022/01/06 05:37:42;;;;;;;3.67;1.08;;;;;;;;;;7310762;19;132370;-60
2022/01/06 05:40:10;;;;;;;2.55;1.00;;;;;;;18.92;42.21;101741.75;7313442;19;131117;-61
2022/01/06 05:42:37;;;;;;;3.25;0.82;;;;;;;18.92;42.30;101744.53;7314147;19;128909;-61
2022/01/06 05:45:05;;;;;;;2.42;1.00;;;;;;;18.93;42.23;101740.69;7312296;19;129030;-61
2022/01/06 05:47:31;;;;;;;3.05;1.00;;;;;;;;;;7314531;19;131056;-61
2022/01/06 05:49:58;;;;;;;2.35;0.77;;;;;;;18.90;42.09;101739.19;7309969;19;131905;-61
2022/01/06 05:52:25;;;;;;;1.83;0.80;;;;;;;18.90;42.13;101746.69;7315930;19;129122;-61
2022/01/06 05:54:51;;;;;;;2.00;1.08;;;;;;;18.90;42.14;101753.06;7309898;19;129262;-61
2022/01/06 05:57:19;;;;;;;1.23;0.80;;;;;;;18.89;42.09;101750.53;7315096;19;131200;-61
2022/01/06 05:59:46;;;;;;;3.38;1.05;;;;;;;18.88;42.08;101741.38;7311064;19;131142;-61
2022/01/06 06:02:13;;;;;;;2.83;0.90;;;;;;;18.88;42.11;101751.59;7312892;19;128993;-61
2022/01/06 06:04:40;;;;;;;3.30;0.90;;;;;;;18.88;42.23;101751.59;7312960;19;129048;-61
2022/01/06 06:07:07;;;;;;;3.50;0.82;;;;;;;18.87;42.32;101758.22;7312217;19;132162;-62
2022/01/06 06:09:34;;;;;;;3.33;0.90;;;;;;;18.86;42.32;101768.47;7311806;19;131876;-61
2022/01/06 06:12:00;;;;;;;2.90;1.02;;;;;;;18.86;42.41;101762.06;7312286;19;129048;-61
2022/01/06 06:14:27;;;;;;;3.70;1.10;;;;;;;18.85;42.48;101760.38;7316204;19;128713;-61
2022/01/06 06:16:54;;;;;;;6.13;0.98;;;;;;;18.84;42.55;101759.53;7307940;19;131227;-62
2022/01/06 06:19:20;;;;;;;4.97;1.00;;;;;;;18.83;42.25;101757.84;7315130;19;130989;-61
2022/01/06 06:21:47;;;;;;;3.22;0.98;;;;;;;18.86;42.55;101767.59;7311950;19;130196;-61
2022/01/06 06:24:14;;;;;;;3.58;0.82;;;;;;;18.88;42.75;101763.56;7313395;19;129097;-61
2022/01/06 06:26:41;;;;;;;2.63;0.77;;;;;;;18.99;42.69;101769.44;7311578;19;131283;-61
2022/01/06 06:29:07;;;;;;;3.35;0.70;;;;;;;19.14;42.52;101766.28;7309934;19;131893;-61
2022/01/06 06:31:34;;;;;;;5.57;1.00;;;;;;;19.35;42.04;101765.84;7310131;19;129045;-62
2022/01/06 06:34:01;;;;;;;4.55;0.70;;;;;;;19.61;42.10;101760.25;7309366;19;128923;-60
2022/01/06 06:36:28;;;;;;;2.28;0.77;;;;;;;19.91;41.50;101776.06;7314167;19;130916;-61
2022/01/06 06:38:55;;;;;;;3.45;1.15;;;;;;;20.17;41.08;101783.22;7309314;19;131158;-61
2022/01/06 06:41:21;;;;;;;6.40;0.98;;;;;;;20.43;41.03;101786.69;7311777;19;128992;-61
2022/01/06 06:43:48;;;;;;;5.88;0.77;;;;;;;20.67;40.86;101776.44;7311370;19;129171;-61
2022/01/06 06:46:15;;;;;;;2.50;0.85;;;;;;;20.92;40.47;101785.72;7311961;19;132043;-61
2022/01/06 06:48:42;;;;;;;7.00;1.17;;;;;;;21.14;40.35;101792.38;7310054;19;131365;-61
2022/01/06 06:51:08;;;;;;;1.60;0.80;;;;;;;21.34;39.79;101799.47;7310201;19;131700;-61
2022/01/06 06:53:35;;;;;;;2.50;0.88;;;;;;;21.48;39.61;101797.25;7310704;19;129145;-61
2022/01/06 06:56:02;;;;;;;2.83;0.90;;;;;;;21.62;39.03;101801.50;7312345;19;131369;-62
2022/01/06 06:58:29;;;;;;;3.95;0.80;;;;;;;21.73;39.01;101804.50;7315419;19;132064;-61
2022/01/06 07:00:55;;;;;;;2.15;0.95;;;;;;;21.80;38.72;101808.84;7311496;19;128790;-62
2022/01/06 07:03:22;;;;;;;2.72;0.82;;;;;;;21.80;38.60;101811.63;7315979;19;131824;-61
2022/01/06 07:05:49;;;;;;;2.85;0.80;;;;;;;21.79;38.81;101807.16;7311822;19;131200;-61
2022/01/06 07:08:18;;;;;;;2.95;1.15;;;;;;;21.75;38.91;101819.91;7314744;19;131632;-62
2022/01/06 07:10:45;;;;;;;2.17;0.90;;;;;;;21.69;38.81;101815.28;7312024;19;129915;-61
2022/01/06 07:13:16;;;;;;;3.75;1.15;;;;;;;21.62;38.89;101821.00;7311972;19;129090;-62
2022/01/06 07:15:43;;;;;;;3.30;1.05;;;;;;;21.52;38.82;101821.66;7315417;19;131312;-61
2022/01/06 07:18:10;;;;;;;4.57;1.10;;;;;;;21.44;39.03;101826.69;7311734;19;131241;-61
2022/01/06 07:20:40;;;;;;;7.65;1.25;;;;;;;21.32;39.11;101826.69;7313968;19;129012;-61
2022/01/06 07:23:07;;;;;;;6.20;1.33;;;;;;;21.24;39.15;101835.41;7311842;19;129641;-61
2022/01/06 07:25:34;;;;;;;6.50;1.70;;;;;;;21.13;38.74;101828.75;7314423;19;132145;-62
2022/01/06 07:28:00;;;;;;;7.55;1.50;;;;;;;21.03;38.98;101833.00;7311370;19;131588;-61
2022/01/06 07:30:30;;;;;;;3.80;1.30;;;;;;;20.94;38.99;101840.00;7312899;19;129731;-62
2022/01/06 07:32:56;;;;;;;7.00;1.70;;;;;;;20.85;39.71;101833.94;7311847;19;131902;-61
2022/01/06 07:35:23;;;;;;;7.72;1.30;;;;;;;20.77;39.28;101833.44;7313048;19;132265;-61
2022/01/06 07:37:50;;;;;;;5.05;1.20;;;;;;;20.69;39.40;101826.25;7313753;19;130930;-61
2022/01/06 07:40:18;;;;;;;6.60;1.83;;;;;;;20.64;40.02;101838.09;7310909;19;129402;-61
2022/01/06 07:42:47;;;;;;;6.00;1.83;;;;;;;20.62;40.27;101839.41;7314663;19;129042;-61
2022/01/06 07:45:14;;;;;;;6.03;1.20;;;;;;;20.62;40.11;101845.81;7310725;19;131117;-62
2022/01/06 07:50:30;;;;;;;3.65;1.27;;;;;;;20.72;40.34;101845.25;7308727;19;129970;-61
2022/01/06 07:52:57;;;;;;;3.88;1.33;;;;;;;20.77;40.15;101856.53;7312123;19;129057;-61
2022/01/06 07:55:24;;;;;;;5.43;1.48;;;;;;;20.81;40.06;101846.63;7310189;19;131116;-61
2022/01/06 07:57:51;;;;;;;7.00;1.30;;;;;;;20.87;40.06;101845.69;7311923;19;131201;-61
2022/01/06 08:00:19;;;;;;;4.75;1.13;;;;;;;20.94;40.28;101847.47;7313216;19;129393;-61
2022/01/06 08:02:47;;;;;;;5.63;1.50;;;;;;;21.02;39.75;101849.94;7309495;19;128963;-61
2022/01/06 08:05:15;;;;;;;4.13;1.20;;;;;;;21.13;39.91;101857.44;7312546;19;131745;-61
2022/01/06 08:07:42;;;;;;;3.25;1.25;;;;;;;21.26;39.93;101855.50;7309721;19;131078;-61
2022/01/06 08:10:10;;;;;;;4.03;1.13;;;;;;;21.30;39.45;101852.00;7313504;19;130601;-61
2022/01/06 08:12:37;;;;;;;4.13;1.20;;;;;;;21.36;39.79;101855.75;7309692;19;128917;-61
2022/01/06 08:15:05;;;;;;;4.85;1.00;;;;;;;21.42;39.36;101865.06;7312234;19;131908;-61
2022/01/06 08:17:32;;;;;;;3.00;1.00;;;;;;;21.46;39.68;101861.56;7309708;19;132516;-61
2022/01/06 08:19:59;;;;;;;4.82;1.33;;;;;;;21.49;39.25;101866.66;7311013;19;129057;-61
2022/01/06 08:22:26;;;;;;;3.88;1.00;;;;;;;21.53;39.64;101872.59;7312731;19;130530;-61
2022/01/06 08:24:52;;;;;;;2.17;0.90;;;;;;;21.59;39.54;101873.56;7308867;19;134717;-62
2022/01/06 08:27:19;;;;;;;3.85;1.30;;;;;;;21.61;39.52;101879.72;7313070;19;131072;-61
2022/01/06 08:29:46;;;;;;;3.78;1.13;;;;;;;21.64;39.50;101882.88;7308749;19;128912;-61
2022/01/06 08:32:14;;;;;;;4.78;1.17;;;;;;;21.68;39.44;101883.22;7310118;19;129207;-62
2022/01/06 08:34:41;;;;;;;3.33;1.20;;;;;;;21.72;39.14;101883.59;7310194;19;131399;-61
2022/01/06 08:37:07;;;;;;;6.32;1.25;;;;;;;21.75;39.06;101878.38;7310755;19;132347;-61
2022/01/06 08:39:34;;;;;;;3.45;1.17;;;;;;;21.82;39.22;101883.81;7311675;19;128836;-61
2022/01/06 08:42:01;;;;;;;3.30;1.10;;;;;;;21.82;39.38;101881.88;7311262;19;130278;-61
2022/01/06 08:44:28;;;;;;;5.03;1.17;;;;;;;21.83;39.24;101882.75;7312066;19;131114;-61
2022/01/06 08:47:00;;;;;;;2.63;1.10;;;;;;;21.86;39.48;101886.97;7309452;19;131178;-61
2022/01/06 08:49:27;;;;;;;3.42;1.27;;;;;;;21.87;39.11;101885.88;7312681;19;128958;-61
2022/01/06 08:51:54;;;;;;;3.22;0.98;;;;;;;21.87;39.27;101888.66;7307516;19;129049;-61
2022/01/06 08:54:21;;;;;;;5.60;1.80;;;;;;;21.87;39.27;101895.06;7312224;19;131121;-60
2022/01/06 08:56:47;;;;;;;6.75;1.13;;;;;;;21.89;39.17;101898.47;7308302;19;131096;-61
2022/01/06 08:59:14;;;;;;;3.80;1.27;;;;;;;21.92;39.22;101897.09;7310425;19;128919;-61
2022/01/06 09:01:41;;;;;;;5.45;1.25;;;;;;;21.94;39.30;101906.06;7311562;19;132093;-61
2022/01/06 09:04:08;;;;;;;3.60;1.00;;;;;;;21.94;39.03;101895.78;7309150;19;131965;-61
2022/01/06 09:06:35;;;;;;;3.97;1.10;;;;;;;21.97;39.20;101905.59;7311849;19;131244;-61
2022/01/06 09:09:03;;;;;;;3.58;1.05;;;;;;;21.99;39.51;101903.41;7308950;19;129728;-61
2022/01/06 09:11:29;;;;;;;2.25;1.05;;;;;;;22.00;39.20;101905.13;7311054;19;131209;-61
2022/01/06 09:13:56;;;;;;;4.20;1.30;;;;;;;22.01;39.26;101898.44;7307810;19;131279;-61
2022/01/06 09:16:23;;;;;;;4.78;1.48;;;;;;;22.04;39.23;101911.88;7316391;19;131202;-61
2022/01/06 09:18:50;;;;;;;4.50;1.00;;;;;;;22.05;39.14;101912.72;7315563;19;128909;-61
2022/01/06 09:21:22;;;;;;;3.70;1.10;;;;;;;22.07;39.22;101914.16;7317358;19;128984;-62
2022/01/06 09:23:51;;;;;;;3.00;1.30;;;;;;;22.09;38.80;101903.63;7316478;19;135105;-61
2022/01/06 09:26:19;;;;;;;3.42;1.20;;;;;;;22.11;39.18;101911.72;7315535;19;130956;-61
2022/01/06 09:28:46;;;;;;;2.63;1.27;;;;;;;22.11;38.94;101907.03;7318210;19;129036;-61
2022/01/06 09:31:13;;;;;;;3.80;1.23;;;;;;;22.12;38.97;101907.84;7315033;19;128993;-62
2022/01/06 09:33:40;;;;;;;1.40;0.80;;;;;;;22.10;39.01;101915.59;7317528;19;131479;-61
2022/01/06 09:36:06;;;;;;;2.83;1.17;;;;;;;22.07;39.02;101918.91;7313090;19;131067;-61
2022/01/06 09:38:33;;;;;;;5.28;1.10;;;;;;;22.02;39.04;101919.66;7317365;19;130286;-61
2022/01/06 09:41:05;;;;;;;4.85;1.33;;;;;;;21.95;39.13;101925.34;7311832;19;129300;-61
2022/01/06 09:43:34;;;;;;;4.18;1.38;;;;;;;21.87;38.57;101922.09;7315573;19;131276;-61
2022/01/06 09:46:06;;;;;;;4.38;1.45;;;;;;;21.80;38.95;101920.25;7316196;19;131188;-61
2022/01/06 09:48:35;;;;;;;4.53;1.35;;;;;;;21.75;38.92;101917.38;7314755;19;129050;-61
2022/01/06 09:51:03;;;;;;;3.00;1.27;;;;;;;21.69;38.78;101920.28;7317491;19;129617;-60
2022/01/06 09:53:30;;;;;;;3.03;1.50;;;;;;;21.62;39.04;101917.63;7312086;19;131222;-61
2022/01/06 09:55:57;;;;;;;6.05;1.95;;;;;;;21.53;38.16;101928.28;7306881;19;131353;-61
2022/01/06 09:58:26;;;;;;;5.43;1.60;;;;;;;21.46;38.35;101931.16;7312114;19;129282;-61
2022/01/06 10:00:55;;;;;;;5.47;1.90;;;;;;;21.40;38.32;101925.69;7317042;19;128877;-60
2022/01/06 10:03:38;;;;;;;7.57;2.10;;;;;;;21.33;38.30;101936.94;7313995;19;131048;-61
2022/01/06 10:06:18;;;;;;;4.63;2.03;;;;;;;21.29;37.59;101930.19;7314388;19;130928;-60
2022/01/06 10:09:06;;;;;;;7.53;2.10;;;;;;;21.25;37.89;101927.00;7315656;19;129561;-61
2022/01/06 10:11:34;;;;;;;5.80;1.75;;;;;;;21.22;37.85;101928.34;7312818;19;128853;-61
2022/01/06 10:14:06;;;;;;;5.75;2.03;;;;;;;21.25;37.49;101937.31;7316274;19;132131;-61
2022/01/06 10:16:35;;;;;;;6.22;2.10;;;;;;;21.30;37.38;101937.41;7312960;19;131108;-61
2022/01/06 10:19:07;;;;;;;4.50;2.05;;;;;;;21.41;37.19;101931.03;7316510;19;130203;-61
2022/01/06 10:21:37;;;;;;;5.05;1.75;;;;;;;21.54;36.79;101923.56;7316246;19;132286;-61
2022/01/06 10:24:24;;;;;;;5.07;2.03;;;;;;;21.69;36.56;101921.13;7313833;19;131263;-61
2022/01/06 10:26:56;;;;;;;7.25;2.13;;;;;;;21.81;36.33;101924.75;7315734;19;131205;-61
2022/01/06 10:29:26;;;;;;;5.45;1.90;;;;;;;21.95;36.14;101919.78;7310864;19;129101;-62
2022/01/06 10:32:01;;;;;;;9.30;2.55;;;;;;;22.09;35.93;101920.34;7314343;19;129173;-61
2022/01/06 10:34:33;;;;;;;6.18;2.25;;;;;;;22.20;35.95;101923.34;7312437;19;131311;-61
2022/01/06 10:37:15;;;;;;;3.80;1.77;;;;;;;22.31;35.43;101919.69;7313639;19;131112;-61
2022/01/06 10:39:44;;;;;;;4.95;1.90;;;;;;;22.41;35.51;101917.13;7315519;19;129031;-61
2022/01/06 10:42:12;;;;;;;7.93;2.25;;;;;;;22.49;35.44;101927.03;7313003;19;129396;-62
2022/01/06 10:44:50;;;;;;;7.03;2.35;;;;;;;22.59;35.32;101918.84;7315734;19;131881;-61
2022/01/06 10:47:41;;;;;;;9.20;1.98;;;;;;;22.67;35.13;101914.00;7310505;19;131223;-61
2022/01/06 10:50:17;;;;;;;6.03;1.90;;;;;;;22.76;35.27;101925.59;7312673;19;128724;-61
2022/01/06 10:52:58;;;;;;;7.43;2.33;;;;;;;22.82;35.00;101919.00;7313087;19;131825;-61
2022/01/06 10:55:28;;;;;;;5.75;1.90;;;;;;;22.86;35.29;101923.81;7312046;19;131130;-61
2022/01/06 10:57:58;;;;;;;5.05;1.80;;;;;;;22.89;34.68;101916.91;7313903;19;133305;-62
2022/01/06 11:00:32;;;;;;;10.30;2.25;;;;;;;22.93;34.83;101923.69;7311143;19;129799;-62
2022/01/06 11:03:21;;;;;;;3.88;1.90;;;;;;;22.94;34.77;101925.41;7314700;19;129121;-61
2022/01/06 11:05:51;;;;;;;3.67;1.50;;;;;;;22.92;34.96;101921.16;7314567;19;131129;-61
2022/01/06 11:08:30;;;;;;;6.28;1.85;;;;;;;22.91;34.76;101920.31;7312707;19;131132;-61
2022/01/06 11:13:35;;;;;;;5.32;1.80;;;;;;;22.92;34.78;101918.38;7311287;19;128945;-61
2022/01/06 11:16:04;;;;;;;6.00;2.25;;;;;;;22.91;34.82;101920.31;7314648;19;131908;-61
2022/01/06 11:18:32;;;;;;;5.80;2.00;;;;;;;22.88;35.07;101915.22;7310693;19;131711;-61
2022/01/06 11:21:13;;;;;;;4.90;1.98;;;;;;;22.84;35.01;101914.84;7313960;19;130330;-61
2022/01/06 11:23:43;;;;;;;6.03;1.95;;;;;;;22.81;35.13;101909.81;7312784;19;131779;-61
2022/01/06 11:26:22;;;;;;;4.65;1.67;;;;;;;22.76;35.06;101912.47;7311189;19;131453;-61
2022/01/06 11:28:54;;;;;;;7.30;1.83;;;;;;;22.70;35.32;101919.91;7313388;19;131874;-61
2022/01/06 11:31:27;;;;;;;4.93;1.55;;;;;;;22.65;35.14;101917.00;7310050;19;129529;-61
2022/01/06 11:33:56;;;;;;;5.05;1.95;;;;;;;22.57;35.15;101914.63;7314549;19;128890;-61
2022/01/06 11:36:31;;;;;;;5.05;1.90;;;;;;;22.52;35.13;101912.59;7310227;19;131157;-61
2022/01/06 11:39:05;;;;;;;8.93;1.75;;;;;;;22.47;35.22;101917.22;7311301;19;130824;-61